Pagrindinis puslapis
METAR-TAF:

METAR-TAF

Oro uostai :

Saporas, Japonija

platuma: 43-07N, ilguma: 141-23E, Aukštis: 8 m

Dabartinis oras

Ataskaita buvo paskelbta 38 minutes, ne 22:00 UTC
Vėjas 3 kt iš Šiaurės/Šiaurės Vakarų
Temperatūra 14°C
Drėgmė 77%
Slėgis 1009 hPa
Matomumas 10 km arba daugiau
Mažai debesys ne aukštis 3500 ft
Išsisklaidę debesys ne aukštis 23000 ft

METAR: RJCO 172200Z 33003KT 9999 FEW035 SCT230 14/10 Q1009

Laikas: 07:38 (22:38 UTC)


TAF: trūkstamas

Orai ataskaitas ir orų prognozės (METAR, TAF).

turimą stotys yra geltonos ir raudonos taškus žemėlapyje.

Perkelti pele per norėdami pamatyti stoties vardą.

Tada spustelėkite, norėdami matyti oro stebėjimo ir prognozės.

Norėdami pakeisti žemėlapį: spustelėkite ant žalios mygtukų su juodo kryžiaus žemyn,; žalią mygtuką su brūkšneliu, jei norite nutolinti; arba žalių rodyklių gretimoms žemėlapius.


METAR-TAF: